sensor_id;sensor_type;location;lat;lon;timestamp;P1;durP1;ratioP1;P2;durP2;ratioP2
58992;SDS011;44782;0.000;0.000;2023-11-21T00:00:36;2.03;;;1.83;;
58992;SDS011;44782;0.000;0.000;2023-11-21T00:02:51;2.43;;;1.97;;
58992;SDS011;44782;0.000;0.000;2023-11-21T00:05:10;1.83;;;1.73;;
58992;SDS011;44782;0.000;0.000;2023-11-21T00:07:29;3.03;;;2.20;;
58992;SDS011;44782;0.000;0.000;2023-11-21T00:09:44;3.00;;;1.97;;
58992;SDS011;44782;0.000;0.000;2023-11-21T00:12:00;2.00;;;1.90;;
58992;SDS011;44782;0.000;0.000;2023-11-21T00:14:16;2.13;;;1.80;;
58992;SDS011;44782;0.000;0.000;2023-11-21T00:16:32;2.07;;;1.87;;
58992;SDS011;44782;0.000;0.000;2023-11-21T00:18:49;1.77;;;1.67;;
58992;SDS011;44782;0.000;0.000;2023-11-21T00:21:04;2.20;;;2.00;;
58992;SDS011;44782;0.000;0.000;2023-11-21T00:23:20;1.90;;;1.80;;
58992;SDS011;44782;0.000;0.000;2023-11-21T00:25:36;2.50;;;1.77;;
58992;SDS011;44782;0.000;0.000;2023-11-21T00:27:51;2.13;;;1.73;;
58992;SDS011;44782;0.000;0.000;2023-11-21T00:30:07;1.83;;;1.67;;
58992;SDS011;44782;0.000;0.000;2023-11-21T00:32:23;2.57;;;1.70;;
58992;SDS011;44782;0.000;0.000;2023-11-21T00:34:39;2.10;;;1.90;;
58992;SDS011;44782;0.000;0.000;2023-11-21T00:36:55;2.47;;;1.70;;
58992;SDS011;44782;0.000;0.000;2023-11-21T00:39:10;2.03;;;1.83;;
58992;SDS011;44782;0.000;0.000;2023-11-21T00:41:26;1.83;;;1.73;;
58992;SDS011;44782;0.000;0.000;2023-11-21T00:43:42;2.23;;;1.90;;
58992;SDS011;44782;0.000;0.000;2023-11-21T00:45:59;1.90;;;1.80;;
58992;SDS011;44782;0.000;0.000;2023-11-21T00:48:15;2.00;;;1.90;;
58992;SDS011;44782;0.000;0.000;2023-11-21T00:50:30;2.00;;;1.90;;
58992;SDS011;44782;0.000;0.000;2023-11-21T00:52:46;2.00;;;1.90;;
58992;SDS011;44782;0.000;0.000;2023-11-21T00:55:02;1.97;;;1.77;;
58992;SDS011;44782;0.000;0.000;2023-11-21T00:57:18;1.80;;;1.70;;
58992;SDS011;44782;0.000;0.000;2023-11-21T00:59:34;1.87;;;1.77;;
58992;SDS011;44782;0.000;0.000;2023-11-21T01:01:50;1.80;;;1.70;;
58992;SDS011;44782;0.000;0.000;2023-11-21T01:04:06;1.70;;;1.60;;
58992;SDS011;44782;0.000;0.000;2023-11-21T01:06:22;2.00;;;1.80;;
58992;SDS011;44782;0.000;0.000;2023-11-21T01:08:37;1.87;;;1.57;;
58992;SDS011;44782;0.000;0.000;2023-11-21T01:10:53;1.70;;;1.60;;
58992;SDS011;44782;0.000;0.000;2023-11-21T01:13:09;1.90;;;1.70;;
58992;SDS011;44782;0.000;0.000;2023-11-21T01:15:25;2.00;;;1.80;;
58992;SDS011;44782;0.000;0.000;2023-11-21T01:17:41;1.60;;;1.50;;
58992;SDS011;44782;0.000;0.000;2023-11-21T01:19:57;2.00;;;1.73;;
58992;SDS011;44782;0.000;0.000;2023-11-21T01:22:13;1.90;;;1.80;;
58992;SDS011;44782;0.000;0.000;2023-11-21T01:24:29;2.00;;;1.80;;
58992;SDS011;44782;0.000;0.000;2023-11-21T01:26:44;1.90;;;1.80;;
58992;SDS011;44782;0.000;0.000;2023-11-21T01:29:01;1.87;;;1.70;;
58992;SDS011;44782;0.000;0.000;2023-11-21T01:31:17;2.00;;;1.90;;
58992;SDS011;44782;0.000;0.000;2023-11-21T01:33:33;2.00;;;1.70;;
58992;SDS011;44782;0.000;0.000;2023-11-21T01:35:48;1.97;;;1.77;;
58992;SDS011;44782;0.000;0.000;2023-11-21T01:38:04;1.97;;;1.77;;
58992;SDS011;44782;0.000;0.000;2023-11-21T01:40:20;2.20;;;1.80;;
58992;SDS011;44782;0.000;0.000;2023-11-21T01:42:36;1.90;;;1.70;;
58992;SDS011;44782;0.000;0.000;2023-11-21T01:44:51;1.70;;;1.60;;
58992;SDS011;44782;0.000;0.000;2023-11-21T01:47:07;1.70;;;1.60;;
58992;SDS011;44782;0.000;0.000;2023-11-21T01:49:24;1.77;;;1.67;;
58992;SDS011;44782;0.000;0.000;2023-11-21T01:51:41;2.00;;;1.80;;
58992;SDS011;44782;0.000;0.000;2023-11-21T01:53:58;1.57;;;1.47;;
58992;SDS011;44782;0.000;0.000;2023-11-21T01:56:14;1.90;;;1.80;;
58992;SDS011;44782;0.000;0.000;2023-11-21T01:58:30;2.00;;;1.77;;
58992;SDS011;44782;0.000;0.000;2023-11-21T02:00:47;1.80;;;1.70;;
58992;SDS011;44782;0.000;0.000;2023-11-21T02:03:05;2.03;;;1.67;;
58992;SDS011;44782;0.000;0.000;2023-11-21T02:05:22;2.00;;;1.90;;
58992;SDS011;44782;0.000;0.000;2023-11-21T02:10:03;2.10;;;1.90;;
58992;SDS011;44782;0.000;0.000;2023-11-21T02:12:19;2.03;;;1.87;;
58992;SDS011;44782;0.000;0.000;2023-11-21T02:14:35;2.03;;;1.80;;
58992;SDS011;44782;0.000;0.000;2023-11-21T02:16:51;1.97;;;1.77;;
58992;SDS011;44782;0.000;0.000;2023-11-21T02:19:07;2.10;;;1.87;;
58992;SDS011;44782;0.000;0.000;2023-11-21T02:21:25;2.13;;;1.87;;
58992;SDS011;44782;0.000;0.000;2023-11-21T02:23:41;2.13;;;1.73;;
58992;SDS011;44782;0.000;0.000;2023-11-21T02:25:59;2.17;;;1.90;;
58992;SDS011;44782;0.000;0.000;2023-11-21T02:28:19;2.07;;;1.87;;
58992;SDS011;44782;0.000;0.000;2023-11-21T02:30:40;2.03;;;1.80;;
58992;SDS011;44782;0.000;0.000;2023-11-21T02:32:57;2.00;;;1.80;;
58992;SDS011;44782;0.000;0.000;2023-11-21T02:35:13;2.20;;;2.00;;
58992;SDS011;44782;0.000;0.000;2023-11-21T02:37:30;2.23;;;1.80;;
58992;SDS011;44782;0.000;0.000;2023-11-21T02:39:46;2.40;;;2.07;;
58992;SDS011;44782;0.000;0.000;2023-11-21T02:42:02;2.10;;;1.90;;
58992;SDS011;44782;0.000;0.000;2023-11-21T02:44:17;2.00;;;1.80;;
58992;SDS011;44782;0.000;0.000;2023-11-21T02:46:33;2.90;;;1.80;;
58992;SDS011;44782;0.000;0.000;2023-11-21T02:48:49;1.97;;;1.87;;
58992;SDS011;44782;0.000;0.000;2023-11-21T02:51:06;1.67;;;1.57;;
58992;SDS011;44782;0.000;0.000;2023-11-21T02:53:22;2.10;;;1.90;;
58992;SDS011;44782;0.000;0.000;2023-11-21T02:55:39;2.13;;;1.93;;
58992;SDS011;44782;0.000;0.000;2023-11-21T02:57:55;1.90;;;1.80;;
58992;SDS011;44782;0.000;0.000;2023-11-21T03:00:11;2.07;;;1.97;;
58992;SDS011;44782;0.000;0.000;2023-11-21T03:02:30;2.00;;;1.80;;
58992;SDS011;44782;0.000;0.000;2023-11-21T03:04:46;1.87;;;1.77;;
58992;SDS011;44782;0.000;0.000;2023-11-21T03:07:04;2.00;;;1.80;;
58992;SDS011;44782;0.000;0.000;2023-11-21T03:09:20;2.10;;;1.93;;
58992;SDS011;44782;0.000;0.000;2023-11-21T03:11:36;2.20;;;1.70;;
58992;SDS011;44782;0.000;0.000;2023-11-21T03:13:51;2.83;;;1.90;;
58992;SDS011;44782;0.000;0.000;2023-11-21T03:16:10;1.93;;;1.83;;
58992;SDS011;44782;0.000;0.000;2023-11-21T03:18:26;2.10;;;1.90;;
58992;SDS011;44782;0.000;0.000;2023-11-21T03:20:44;1.80;;;1.70;;
58992;SDS011;44782;0.000;0.000;2023-11-21T03:23:02;2.20;;;2.00;;
58992;SDS011;44782;0.000;0.000;2023-11-21T03:25:18;1.93;;;1.73;;
58992;SDS011;44782;0.000;0.000;2023-11-21T03:27:34;2.17;;;1.97;;
58992;SDS011;44782;0.000;0.000;2023-11-21T03:29:49;1.80;;;1.70;;
58992;SDS011;44782;0.000;0.000;2023-11-21T03:32:05;2.00;;;1.90;;
58992;SDS011;44782;0.000;0.000;2023-11-21T03:34:26;1.93;;;1.83;;
58992;SDS011;44782;0.000;0.000;2023-11-21T03:36:43;2.10;;;1.90;;
58992;SDS011;44782;0.000;0.000;2023-11-21T03:38:59;1.80;;;1.70;;
58992;SDS011;44782;0.000;0.000;2023-11-21T03:41:14;2.13;;;1.93;;
58992;SDS011;44782;0.000;0.000;2023-11-21T03:43:30;2.03;;;1.83;;
58992;SDS011;44782;0.000;0.000;2023-11-21T03:45:45;2.10;;;1.97;;
58992;SDS011;44782;0.000;0.000;2023-11-21T03:48:01;1.83;;;1.73;;
58992;SDS011;44782;0.000;0.000;2023-11-21T03:50:17;2.00;;;1.80;;
58992;SDS011;44782;0.000;0.000;2023-11-21T03:52:33;2.03;;;1.83;;
58992;SDS011;44782;0.000;0.000;2023-11-21T03:54:48;1.70;;;1.60;;
58992;SDS011;44782;0.000;0.000;2023-11-21T03:57:04;2.10;;;1.90;;
58992;SDS011;44782;0.000;0.000;2023-11-21T03:59:20;1.97;;;1.87;;
58992;SDS011;44782;0.000;0.000;2023-11-21T04:01:35;1.93;;;1.83;;
58992;SDS011;44782;0.000;0.000;2023-11-21T04:03:51;2.17;;;1.77;;
58992;SDS011;44782;0.000;0.000;2023-11-21T04:06:07;1.90;;;1.77;;
58992;SDS011;44782;0.000;0.000;2023-11-21T04:08:23;2.33;;;1.80;;
58992;SDS011;44782;0.000;0.000;2023-11-21T04:10:38;1.80;;;1.70;;
58992;SDS011;44782;0.000;0.000;2023-11-21T04:12:54;2.00;;;1.80;;
58992;SDS011;44782;0.000;0.000;2023-11-21T04:15:10;2.00;;;1.90;;
58992;SDS011;44782;0.000;0.000;2023-11-21T04:17:27;2.00;;;1.90;;
58992;SDS011;44782;0.000;0.000;2023-11-21T04:19:43;2.20;;;2.00;;
58992;SDS011;44782;0.000;0.000;2023-11-21T04:21:58;1.90;;;1.70;;
58992;SDS011;44782;0.000;0.000;2023-11-21T04:24:14;1.93;;;1.73;;
58992;SDS011;44782;0.000;0.000;2023-11-21T04:26:30;2.43;;;1.87;;
58992;SDS011;44782;0.000;0.000;2023-11-21T04:28:45;1.70;;;1.60;;
58992;SDS011;44782;0.000;0.000;2023-11-21T04:31:01;1.73;;;1.63;;
58992;SDS011;44782;0.000;0.000;2023-11-21T04:33:17;1.83;;;1.73;;
58992;SDS011;44782;0.000;0.000;2023-11-21T04:35:32;1.80;;;1.70;;
58992;SDS011;44782;0.000;0.000;2023-11-21T04:37:48;1.90;;;1.70;;
58992;SDS011;44782;0.000;0.000;2023-11-21T04:40:06;2.00;;;1.80;;
58992;SDS011;44782;0.000;0.000;2023-11-21T04:42:22;1.90;;;1.80;;
58992;SDS011;44782;0.000;0.000;2023-11-21T04:44:37;1.70;;;1.60;;
58992;SDS011;44782;0.000;0.000;2023-11-21T04:46:56;1.97;;;1.87;;
58992;SDS011;44782;0.000;0.000;2023-11-21T04:49:11;2.17;;;1.97;;
58992;SDS011;44782;0.000;0.000;2023-11-21T04:51:27;1.70;;;1.60;;
58992;SDS011;44782;0.000;0.000;2023-11-21T04:53:42;1.70;;;1.60;;
58992;SDS011;44782;0.000;0.000;2023-11-21T04:55:58;1.93;;;1.80;;
58992;SDS011;44782;0.000;0.000;2023-11-21T04:58:14;1.77;;;1.67;;
58992;SDS011;44782;0.000;0.000;2023-11-21T05:00:29;1.80;;;1.70;;
58992;SDS011;44782;0.000;0.000;2023-11-21T05:02:45;2.20;;;2.00;;
58992;SDS011;44782;0.000;0.000;2023-11-21T05:05:01;2.83;;;1.90;;
58992;SDS011;44782;0.000;0.000;2023-11-21T05:07:17;1.87;;;1.77;;
58992;SDS011;44782;0.000;0.000;2023-11-21T05:09:33;1.90;;;1.80;;
58992;SDS011;44782;0.000;0.000;2023-11-21T05:11:49;2.10;;;1.90;;
58992;SDS011;44782;0.000;0.000;2023-11-21T05:14:05;1.80;;;1.70;;
58992;SDS011;44782;0.000;0.000;2023-11-21T05:16:22;1.70;;;1.60;;
58992;SDS011;44782;0.000;0.000;2023-11-21T05:18:37;1.73;;;1.60;;
58992;SDS011;44782;0.000;0.000;2023-11-21T05:20:55;1.90;;;1.80;;
58992;SDS011;44782;0.000;0.000;2023-11-21T05:23:11;1.93;;;1.70;;
58992;SDS011;44782;0.000;0.000;2023-11-21T05:25:27;1.80;;;1.70;;
58992;SDS011;44782;0.000;0.000;2023-11-21T05:27:42;2.27;;;2.07;;
58992;SDS011;44782;0.000;0.000;2023-11-21T05:29:58;1.97;;;1.77;;
58992;SDS011;44782;0.000;0.000;2023-11-21T05:32:13;1.70;;;1.60;;
58992;SDS011;44782;0.000;0.000;2023-11-21T05:34:29;1.77;;;1.67;;
58992;SDS011;44782;0.000;0.000;2023-11-21T05:36:45;1.80;;;1.67;;
58992;SDS011;44782;0.000;0.000;2023-11-21T05:39:00;1.87;;;1.67;;
58992;SDS011;44782;0.000;0.000;2023-11-21T05:41:18;1.80;;;1.70;;
58992;SDS011;44782;0.000;0.000;2023-11-21T05:43:33;2.00;;;1.80;;
58992;SDS011;44782;0.000;0.000;2023-11-21T05:45:50;1.97;;;1.80;;
58992;SDS011;44782;0.000;0.000;2023-11-21T05:48:06;1.80;;;1.70;;
58992;SDS011;44782;0.000;0.000;2023-11-21T05:50:22;1.83;;;1.73;;
58992;SDS011;44782;0.000;0.000;2023-11-21T05:52:38;1.97;;;1.77;;
58992;SDS011;44782;0.000;0.000;2023-11-21T05:54:55;1.70;;;1.60;;
58992;SDS011;44782;0.000;0.000;2023-11-21T05:57:10;1.70;;;1.60;;
58992;SDS011;44782;0.000;0.000;2023-11-21T05:59:26;1.80;;;1.70;;
58992;SDS011;44782;0.000;0.000;2023-11-21T06:01:42;1.97;;;1.80;;
58992;SDS011;44782;0.000;0.000;2023-11-21T06:03:57;2.03;;;1.83;;
58992;SDS011;44782;0.000;0.000;2023-11-21T06:06:13;2.07;;;1.70;;
58992;SDS011;44782;0.000;0.000;2023-11-21T06:08:30;1.60;;;1.50;;
58992;SDS011;44782;0.000;0.000;2023-11-21T06:10:45;2.03;;;1.93;;
58992;SDS011;44782;0.000;0.000;2023-11-21T06:13:04;2.10;;;2.00;;
58992;SDS011;44782;0.000;0.000;2023-11-21T06:15:19;1.87;;;1.77;;
58992;SDS011;44782;0.000;0.000;2023-11-21T06:17:37;1.80;;;1.70;;
58992;SDS011;44782;0.000;0.000;2023-11-21T06:19:54;1.97;;;1.80;;
58992;SDS011;44782;0.000;0.000;2023-11-21T06:22:10;2.10;;;1.90;;
58992;SDS011;44782;0.000;0.000;2023-11-21T06:24:26;1.93;;;1.83;;
58992;SDS011;44782;0.000;0.000;2023-11-21T06:26:41;2.20;;;2.00;;
58992;SDS011;44782;0.000;0.000;2023-11-21T06:28:57;2.00;;;1.80;;
58992;SDS011;44782;0.000;0.000;2023-11-21T06:31:13;2.50;;;2.07;;
58992;SDS011;44782;0.000;0.000;2023-11-21T06:33:29;2.23;;;1.80;;
58992;SDS011;44782;0.000;0.000;2023-11-21T06:35:44;2.10;;;1.90;;
58992;SDS011;44782;0.000;0.000;2023-11-21T06:38:00;2.00;;;1.90;;
58992;SDS011;44782;0.000;0.000;2023-11-21T06:40:16;2.20;;;2.00;;
58992;SDS011;44782;0.000;0.000;2023-11-21T06:42:35;2.70;;;2.07;;
58992;SDS011;44782;0.000;0.000;2023-11-21T06:44:53;3.03;;;2.23;;
58992;SDS011;44782;0.000;0.000;2023-11-21T06:47:11;2.77;;;2.30;;
58992;SDS011;44782;0.000;0.000;2023-11-21T06:49:27;3.53;;;2.30;;
58992;SDS011;44782;0.000;0.000;2023-11-21T06:51:43;5.07;;;2.10;;
58992;SDS011;44782;0.000;0.000;2023-11-21T06:53:59;2.37;;;2.17;;
58992;SDS011;44782;0.000;0.000;2023-11-21T06:56:15;2.63;;;2.10;;
58992;SDS011;44782;0.000;0.000;2023-11-21T06:58:32;3.27;;;2.00;;
58992;SDS011;44782;0.000;0.000;2023-11-21T07:00:48;2.87;;;2.30;;
58992;SDS011;44782;0.000;0.000;2023-11-21T07:03:05;3.50;;;2.13;;
58992;SDS011;44782;0.000;0.000;2023-11-21T07:05:21;3.70;;;2.50;;
58992;SDS011;44782;0.000;0.000;2023-11-21T07:07:37;2.70;;;2.40;;
58992;SDS011;44782;0.000;0.000;2023-11-21T07:09:53;3.13;;;2.40;;
58992;SDS011;44782;0.000;0.000;2023-11-21T07:12:09;3.47;;;2.17;;
58992;SDS011;44782;0.000;0.000;2023-11-21T07:14:26;3.87;;;2.50;;
58992;SDS011;44782;0.000;0.000;2023-11-21T07:16:41;4.23;;;2.33;;
58992;SDS011;44782;0.000;0.000;2023-11-21T07:18:57;2.67;;;2.47;;
58992;SDS011;44782;0.000;0.000;2023-11-21T07:21:13;2.53;;;2.33;;
58992;SDS011;44782;0.000;0.000;2023-11-21T07:23:30;3.43;;;2.37;;
58992;SDS011;44782;0.000;0.000;2023-11-21T07:25:46;3.93;;;2.70;;
58992;SDS011;44782;0.000;0.000;2023-11-21T07:28:02;2.97;;;2.37;;
58992;SDS011;44782;0.000;0.000;2023-11-21T07:30:18;3.30;;;2.57;;
58992;SDS011;44782;0.000;0.000;2023-11-21T07:32:33;2.60;;;2.40;;
58992;SDS011;44782;0.000;0.000;2023-11-21T07:34:49;3.30;;;2.30;;
58992;SDS011;44782;0.000;0.000;2023-11-21T07:37:04;2.63;;;2.30;;
58992;SDS011;44782;0.000;0.000;2023-11-21T07:39:20;2.77;;;2.20;;
58992;SDS011;44782;0.000;0.000;2023-11-21T07:41:36;3.43;;;2.40;;
58992;SDS011;44782;0.000;0.000;2023-11-21T07:43:53;2.87;;;2.40;;
58992;SDS011;44782;0.000;0.000;2023-11-21T07:46:11;2.13;;;2.00;;
58992;SDS011;44782;0.000;0.000;2023-11-21T07:48:30;2.73;;;2.40;;
58992;SDS011;44782;0.000;0.000;2023-11-21T07:50:46;3.00;;;2.53;;
58992;SDS011;44782;0.000;0.000;2023-11-21T07:53:02;3.03;;;2.43;;
58992;SDS011;44782;0.000;0.000;2023-11-21T07:55:20;2.10;;;2.00;;
58992;SDS011;44782;0.000;0.000;2023-11-21T07:57:36;3.33;;;2.40;;
58992;SDS011;44782;0.000;0.000;2023-11-21T07:59:52;2.80;;;2.43;;
58992;SDS011;44782;0.000;0.000;2023-11-21T08:02:09;2.33;;;2.10;;
58992;SDS011;44782;0.000;0.000;2023-11-21T08:04:24;2.60;;;2.30;;
58992;SDS011;44782;0.000;0.000;2023-11-21T08:06:40;2.50;;;2.30;;
58992;SDS011;44782;0.000;0.000;2023-11-21T08:08:56;2.90;;;2.40;;
58992;SDS011;44782;0.000;0.000;2023-11-21T08:11:12;2.63;;;2.30;;
58992;SDS011;44782;0.000;0.000;2023-11-21T08:13:28;2.50;;;2.30;;
58992;SDS011;44782;0.000;0.000;2023-11-21T08:15:45;2.50;;;2.17;;
58992;SDS011;44782;0.000;0.000;2023-11-21T08:18:01;2.53;;;2.33;;
58992;SDS011;44782;0.000;0.000;2023-11-21T08:20:16;2.43;;;2.23;;
58992;SDS011;44782;0.000;0.000;2023-11-21T08:22:32;2.83;;;2.30;;
58992;SDS011;44782;0.000;0.000;2023-11-21T08:24:49;2.50;;;2.20;;
58992;SDS011;44782;0.000;0.000;2023-11-21T08:27:05;2.70;;;2.50;;
58992;SDS011;44782;0.000;0.000;2023-11-21T08:29:22;2.80;;;2.30;;
58992;SDS011;44782;0.000;0.000;2023-11-21T08:31:38;2.47;;;2.10;;
58992;SDS011;44782;0.000;0.000;2023-11-21T08:33:54;2.87;;;2.20;;
58992;SDS011;44782;0.000;0.000;2023-11-21T08:36:13;2.33;;;2.13;;
58992;SDS011;44782;0.000;0.000;2023-11-21T08:38:28;2.17;;;1.97;;
58992;SDS011;44782;0.000;0.000;2023-11-21T08:40:44;2.57;;;2.20;;
58992;SDS011;44782;0.000;0.000;2023-11-21T08:43:00;2.73;;;2.10;;
58992;SDS011;44782;0.000;0.000;2023-11-21T08:45:15;2.40;;;2.20;;
58992;SDS011;44782;0.000;0.000;2023-11-21T08:47:32;2.30;;;2.10;;
58992;SDS011;44782;0.000;0.000;2023-11-21T08:49:48;2.50;;;2.30;;
58992;SDS011;44782;0.000;0.000;2023-11-21T08:52:04;2.37;;;2.17;;
58992;SDS011;44782;0.000;0.000;2023-11-21T08:54:20;2.10;;;2.00;;
58992;SDS011;44782;0.000;0.000;2023-11-21T08:56:36;2.10;;;2.00;;
58992;SDS011;44782;0.000;0.000;2023-11-21T08:58:51;2.30;;;2.10;;
58992;SDS011;44782;0.000;0.000;2023-11-21T09:01:07;2.53;;;2.20;;
58992;SDS011;44782;0.000;0.000;2023-11-21T09:03:23;2.10;;;2.00;;
58992;SDS011;44782;0.000;0.000;2023-11-21T09:05:39;2.37;;;2.00;;
58992;SDS011;44782;0.000;0.000;2023-11-21T09:07:55;2.27;;;2.07;;
58992;SDS011;44782;0.000;0.000;2023-11-21T09:10:10;2.20;;;2.00;;
58992;SDS011;44782;0.000;0.000;2023-11-21T09:12:26;2.23;;;2.00;;
58992;SDS011;44782;0.000;0.000;2023-11-21T09:14:42;2.10;;;1.90;;
58992;SDS011;44782;0.000;0.000;2023-11-21T09:16:59;2.03;;;1.83;;
58992;SDS011;44782;0.000;0.000;2023-11-21T09:19:15;2.20;;;2.00;;
58992;SDS011;44782;0.000;0.000;2023-11-21T09:21:30;2.47;;;2.07;;
58992;SDS011;44782;0.000;0.000;2023-11-21T09:23:46;2.30;;;1.90;;
58992;SDS011;44782;0.000;0.000;2023-11-21T09:26:03;2.00;;;1.90;;
58992;SDS011;44782;0.000;0.000;2023-11-21T09:28:20;2.13;;;1.70;;
58992;SDS011;44782;0.000;0.000;2023-11-21T09:30:36;1.90;;;1.80;;
58992;SDS011;44782;0.000;0.000;2023-11-21T09:32:51;2.07;;;1.97;;
58992;SDS011;44782;0.000;0.000;2023-11-21T09:35:07;2.20;;;2.00;;
58992;SDS011;44782;0.000;0.000;2023-11-21T09:37:23;1.87;;;1.77;;
58992;SDS011;44782;0.000;0.000;2023-11-21T09:39:39;1.90;;;1.80;;
58992;SDS011;44782;0.000;0.000;2023-11-21T09:41:57;2.03;;;1.83;;
58992;SDS011;44782;0.000;0.000;2023-11-21T09:44:40;1.70;;;1.60;;
58992;SDS011;44782;0.000;0.000;2023-11-21T09:46:59;2.27;;;1.83;;
58992;SDS011;44782;0.000;0.000;2023-11-21T09:49:15;1.97;;;1.80;;
58992;SDS011;44782;0.000;0.000;2023-11-21T09:51:34;1.80;;;1.70;;
58992;SDS011;44782;0.000;0.000;2023-11-21T09:53:53;1.70;;;1.60;;
58992;SDS011;44782;0.000;0.000;2023-11-21T09:56:09;2.03;;;1.70;;
58992;SDS011;44782;0.000;0.000;2023-11-21T09:58:25;2.57;;;1.70;;
58992;SDS011;44782;0.000;0.000;2023-11-21T10:00:43;1.90;;;1.80;;
58992;SDS011;44782;0.000;0.000;2023-11-21T10:03:00;1.73;;;1.60;;
58992;SDS011;44782;0.000;0.000;2023-11-21T10:05:17;1.53;;;1.40;;
58992;SDS011;44782;0.000;0.000;2023-11-21T10:07:37;1.70;;;1.60;;
58992;SDS011;44782;0.000;0.000;2023-11-21T10:09:56;1.57;;;1.47;;
58992;SDS011;44782;0.000;0.000;2023-11-21T10:12:16;1.70;;;1.47;;
58992;SDS011;44782;0.000;0.000;2023-11-21T10:14:35;1.50;;;1.40;;
58992;SDS011;44782;0.000;0.000;2023-11-21T10:16:54;1.53;;;1.43;;
58992;SDS011;44782;0.000;0.000;2023-11-21T10:19:11;1.57;;;1.47;;
58992;SDS011;44782;0.000;0.000;2023-11-21T10:21:30;1.60;;;1.50;;
58992;SDS011;44782;0.000;0.000;2023-11-21T10:23:48;1.63;;;1.53;;
58992;SDS011;44782;0.000;0.000;2023-11-21T10:26:03;1.50;;;1.40;;
58992;SDS011;44782;0.000;0.000;2023-11-21T10:28:21;1.70;;;1.60;;
58992;SDS011;44782;0.000;0.000;2023-11-21T10:30:37;1.60;;;1.50;;
58992;SDS011;44782;0.000;0.000;2023-11-21T10:32:58;1.70;;;1.60;;
58992;SDS011;44782;0.000;0.000;2023-11-21T10:35:15;1.57;;;1.47;;
58992;SDS011;44782;0.000;0.000;2023-11-21T10:37:30;1.70;;;1.60;;
58992;SDS011;44782;0.000;0.000;2023-11-21T10:39:46;1.60;;;1.50;;
58992;SDS011;44782;0.000;0.000;2023-11-21T10:42:02;1.50;;;1.40;;
58992;SDS011;44782;0.000;0.000;2023-11-21T10:44:17;1.50;;;1.40;;
58992;SDS011;44782;0.000;0.000;2023-11-21T10:46:38;1.50;;;1.40;;
58992;SDS011;44782;0.000;0.000;2023-11-21T10:48:55;1.43;;;1.33;;
58992;SDS011;44782;0.000;0.000;2023-11-21T10:51:11;1.40;;;1.30;;
58992;SDS011;44782;0.000;0.000;2023-11-21T10:53:28;1.50;;;1.40;;
58992;SDS011;44782;0.000;0.000;2023-11-21T10:55:44;1.50;;;1.40;;
58992;SDS011;44782;0.000;0.000;2023-11-21T10:58:01;1.60;;;1.50;;
58992;SDS011;44782;0.000;0.000;2023-11-21T11:00:21;1.50;;;1.40;;
58992;SDS011;44782;0.000;0.000;2023-11-21T11:02:37;1.50;;;1.40;;
58992;SDS011;44782;0.000;0.000;2023-11-21T11:04:53;1.43;;;1.33;;
58992;SDS011;44782;0.000;0.000;2023-11-21T11:07:12;1.37;;;1.27;;
58992;SDS011;44782;0.000;0.000;2023-11-21T11:09:31;1.43;;;1.33;;
58992;SDS011;44782;0.000;0.000;2023-11-21T11:11:50;1.40;;;1.30;;
58992;SDS011;44782;0.000;0.000;2023-11-21T11:14:11;1.40;;;1.30;;
58992;SDS011;44782;0.000;0.000;2023-11-21T11:16:27;1.57;;;1.47;;
58992;SDS011;44782;0.000;0.000;2023-11-21T11:18:43;1.60;;;1.50;;
58992;SDS011;44782;0.000;0.000;2023-11-21T11:21:14;1.27;;;1.20;;
58992;SDS011;44782;0.000;0.000;2023-11-21T11:28:27;1.53;;;1.43;;
58992;SDS011;44782;0.000;0.000;2023-11-21T11:31:00;1.30;;;1.20;;
58992;SDS011;44782;0.000;0.000;2023-11-21T11:41:54;1.27;;;1.27;;
58992;SDS011;44782;0.000;0.000;2023-11-21T11:44:47;1.30;;;1.20;;
58992;SDS011;44782;0.000;0.000;2023-11-21T11:47:04;1.43;;;1.20;;
58992;SDS011;44782;0.000;0.000;2023-11-21T11:49:28;1.40;;;1.30;;
58992;SDS011;44782;0.000;0.000;2023-11-21T11:51:44;1.40;;;1.30;;
58992;SDS011;44782;0.000;0.000;2023-11-21T11:54:00;1.40;;;1.30;;
58992;SDS011;44782;0.000;0.000;2023-11-21T11:58:49;1.40;;;1.30;;
58992;SDS011;44782;0.000;0.000;2023-11-21T12:01:07;1.30;;;1.20;;
58992;SDS011;44782;0.000;0.000;2023-11-21T12:03:22;1.20;;;1.20;;
58992;SDS011;44782;0.000;0.000;2023-11-21T12:05:38;1.43;;;1.33;;
58992;SDS011;44782;0.000;0.000;2023-11-21T12:07:59;1.17;;;1.17;;
58992;SDS011;44782;0.000;0.000;2023-11-21T12:10:18;1.33;;;1.23;;
58992;SDS011;44782;0.000;0.000;2023-11-21T12:12:35;1.37;;;1.27;;
58992;SDS011;44782;0.000;0.000;2023-11-21T12:14:51;1.13;;;1.13;;
58992;SDS011;44782;0.000;0.000;2023-11-21T12:17:07;1.40;;;1.30;;
58992;SDS011;44782;0.000;0.000;2023-11-21T12:19:23;1.40;;;1.30;;
58992;SDS011;44782;0.000;0.000;2023-11-21T12:21:39;1.47;;;1.27;;
58992;SDS011;44782;0.000;0.000;2023-11-21T12:24:03;1.23;;;1.17;;
58992;SDS011;44782;0.000;0.000;2023-11-21T12:26:23;1.03;;;1.03;;
58992;SDS011;44782;0.000;0.000;2023-11-21T12:28:39;1.30;;;1.20;;
58992;SDS011;44782;0.000;0.000;2023-11-21T12:30:55;1.33;;;1.23;;
58992;SDS011;44782;0.000;0.000;2023-11-21T12:33:12;1.07;;;1.03;;
58992;SDS011;44782;0.000;0.000;2023-11-21T12:35:33;1.40;;;1.30;;
58992;SDS011;44782;0.000;0.000;2023-11-21T12:37:50;1.03;;;1.03;;
58992;SDS011;44782;0.000;0.000;2023-11-21T12:40:07;1.20;;;1.10;;
58992;SDS011;44782;0.000;0.000;2023-11-21T12:42:26;2.00;;;1.10;;
58992;SDS011;44782;0.000;0.000;2023-11-21T12:44:42;1.33;;;1.20;;
58992;SDS011;44782;0.000;0.000;2023-11-21T12:47:00;1.20;;;1.10;;
58992;SDS011;44782;0.000;0.000;2023-11-21T12:49:16;1.10;;;1.10;;
58992;SDS011;44782;0.000;0.000;2023-11-21T12:51:33;1.30;;;1.20;;
58992;SDS011;44782;0.000;0.000;2023-11-21T12:53:49;1.10;;;1.10;;
58992;SDS011;44782;0.000;0.000;2023-11-21T12:56:06;1.50;;;1.40;;
58992;SDS011;44782;0.000;0.000;2023-11-21T12:58:24;1.30;;;1.20;;
58992;SDS011;44782;0.000;0.000;2023-11-21T13:00:44;1.30;;;1.20;;
58992;SDS011;44782;0.000;0.000;2023-11-21T13:03:01;1.30;;;1.20;;
58992;SDS011;44782;0.000;0.000;2023-11-21T13:05:23;1.13;;;1.03;;
58992;SDS011;44782;0.000;0.000;2023-11-21T13:07:42;1.30;;;1.20;;
58992;SDS011;44782;0.000;0.000;2023-11-21T13:10:01;1.30;;;1.20;;
58992;SDS011;44782;0.000;0.000;2023-11-21T13:12:23;1.20;;;1.20;;
58992;SDS011;44782;0.000;0.000;2023-11-21T13:14:40;1.17;;;1.07;;
58992;SDS011;44782;0.000;0.000;2023-11-21T13:16:55;1.10;;;1.10;;
58992;SDS011;44782;0.000;0.000;2023-11-21T13:19:11;1.20;;;1.10;;
58992;SDS011;44782;0.000;0.000;2023-11-21T13:21:26;1.23;;;1.20;;
58992;SDS011;44782;0.000;0.000;2023-11-21T13:23:42;1.10;;;1.10;;
58992;SDS011;44782;0.000;0.000;2023-11-21T13:26:01;1.30;;;1.20;;
58992;SDS011;44782;0.000;0.000;2023-11-21T13:28:19;1.30;;;1.20;;
58992;SDS011;44782;0.000;0.000;2023-11-21T13:30:36;1.00;;;1.00;;
58992;SDS011;44782;0.000;0.000;2023-11-21T13:32:54;1.00;;;1.00;;
58992;SDS011;44782;0.000;0.000;2023-11-21T13:35:16;1.00;;;1.00;;
58992;SDS011;44782;0.000;0.000;2023-11-21T13:37:35;1.10;;;1.10;;
58992;SDS011;44782;0.000;0.000;2023-11-21T13:39:51;1.07;;;1.00;;
58992;SDS011;44782;0.000;0.000;2023-11-21T13:42:07;0.90;;;0.90;;
58992;SDS011;44782;0.000;0.000;2023-11-21T13:44:26;1.30;;;1.20;;
58992;SDS011;44782;0.000;0.000;2023-11-21T13:46:49;1.07;;;1.07;;
58992;SDS011;44782;0.000;0.000;2023-11-21T13:49:04;1.17;;;1.13;;
58992;SDS011;44782;0.000;0.000;2023-11-21T13:51:24;1.30;;;1.20;;
58992;SDS011;44782;0.000;0.000;2023-11-21T13:53:52;1.13;;;1.10;;
58992;SDS011;44782;0.000;0.000;2023-11-21T13:56:10;0.90;;;0.90;;
58992;SDS011;44782;0.000;0.000;2023-11-21T13:58:26;1.00;;;1.00;;
58992;SDS011;44782;0.000;0.000;2023-11-21T14:00:56;0.87;;;0.87;;
58992;SDS011;44782;0.000;0.000;2023-11-21T14:03:12;1.40;;;1.30;;
58992;SDS011;44782;0.000;0.000;2023-11-21T14:05:36;0.90;;;0.90;;
58992;SDS011;44782;0.000;0.000;2023-11-21T14:07:52;1.10;;;1.10;;
58992;SDS011;44782;0.000;0.000;2023-11-21T14:10:07;0.93;;;0.93;;
58992;SDS011;44782;0.000;0.000;2023-11-21T14:12:28;0.90;;;0.90;;
58992;SDS011;44782;0.000;0.000;2023-11-21T14:14:44;0.80;;;0.80;;